Time;durP1;ratioP1;P1;durP2;ratioP2;P2;SDS_P1;SDS_P2;PMS_P1;PMS_P2;Temp;Humidity;BMP_temperature;BMP_pressure;BME280_temperature;BME280_humidity;BME280_pressure;Samples;Min_cycle;Max_cycle;Signal;HPM_P1;HPM_P2
2022/01/20 00:01:49;;;;;;;11.63;1.80;;;;;;;4.90;100.00;102603.91;5027995;28;20022;-75
2022/01/20 00:04:21;;;;;;;15.65;1.52;;;;;;;4.83;100.00;102598.16;5031009;28;20112;-74
2022/01/20 00:28:17;;;;;;;23.50;2.72;;;;;;;5.20;100.00;102631.97;5031977;28;20040;-75
2022/01/20 00:30:49;;;;;;;26.42;3.80;;;;;;;5.24;100.00;102634.00;5021980;28;20026;-75
2022/01/20 00:33:52;;;;;;;28.23;2.97;;;;;;;5.21;100.00;102626.84;5025027;28;20025;-75
2022/01/20 00:38:33;;;;;;;8.60;1.65;;;;;;;5.21;100.00;102621.63;5024505;28;20037;-75
2022/01/20 00:40:59;;;;;;;18.73;2.42;;;;;;;5.26;98.66;102621.94;5029820;28;20052;-75
2022/01/20 00:43:24;;;;;;;16.30;1.77;;;;;;;5.24;99.26;102624.44;5029583;28;20025;-76
2022/01/20 00:45:50;;;;;;;19.90;2.40;;;;;;;5.29;98.79;102623.84;5023574;28;20030;-76
2022/01/20 00:48:17;;;;;;;19.10;2.13;;;;;;;5.24;99.55;102632.28;5017971;28;20458;-74
2022/01/20 00:50:43;;;;;;;11.25;2.38;;;;;;;5.24;100.00;102627.06;5027916;28;20121;-75
2022/01/20 00:53:08;;;;;;;21.20;3.83;;;;;;;5.28;100.00;102645.56;5018148;28;20108;-75
2022/01/20 00:55:38;;;;;;;18.55;2.17;;;;;;;5.24;100.00;102652.25;5028484;28;20101;-75
2022/01/20 00:58:03;;;;;;;17.17;1.73;;;;;;;5.02;100.00;102650.78;5019645;28;20044;-75
2022/01/20 01:00:29;;;;;;;15.02;2.95;;;;;;;4.93;100.00;102660.59;5023423;28;20022;-74
2022/01/20 01:02:56;;;;;;;11.77;2.13;;;;;;;4.81;100.00;102654.53;5026425;28;20060;-75
2022/01/20 01:05:22;;;;;;;11.68;1.70;;;;;;;4.70;100.00;102649.47;5006544;28;20053;-75
2022/01/20 01:07:49;;;;;;;15.48;2.10;;;;;;;4.62;100.00;102648.03;5015586;28;20114;-75
2022/01/20 01:10:18;;;;;;;12.48;2.15;;;;;;;4.60;100.00;102649.63;5012707;28;20026;-74
2022/01/20 01:15:16;;;;;;;27.35;2.33;;;;;;;4.60;100.00;102648.72;5031910;28;20065;-74
2022/01/20 01:20:29;;;;;;;16.40;2.30;;;;;;;4.74;100.00;102645.38;5018621;28;20067;-75
2022/01/20 01:22:54;;;;;;;15.60;3.00;;;;;;;4.78;100.00;102649.13;5017876;28;20053;-75
2022/01/20 01:25:20;;;;;;;15.82;2.20;;;;;;;4.78;100.00;102651.72;5026714;28;20044;-74
2022/01/20 01:27:46;;;;;;;13.73;2.30;;;;;;;4.78;100.00;102654.34;5014166;28;20033;-75
2022/01/20 01:32:49;;;;;;;11.98;1.23;;;;;;;4.80;100.00;102657.94;5026781;28;20386;-75
2022/01/20 01:35:17;;;;;;;12.13;1.70;;;;;;;4.78;100.00;102638.69;5024505;28;20033;-75
2022/01/20 01:40:22;;;;;;;11.65;1.80;;;;;;;4.67;100.00;102637.94;5016257;28;20394;-74
2022/01/20 01:42:50;;;;;;;11.75;1.98;;;;;;;4.64;100.00;102646.44;5023285;28;20116;-74
2022/01/20 01:45:40;;;;;;;7.70;0.90;;;;;;;4.59;100.00;102657.34;5029237;28;20037;-75
2022/01/20 01:48:07;;;;;;;11.10;2.33;;;;;;;4.59;100.00;102660.84;5026432;28;20033;-74
2022/01/20 01:50:32;;;;;;;10.68;1.85;;;;;;;4.62;100.00;102658.47;5025727;28;20038;-74
2022/01/20 01:53:01;;;;;;;13.57;2.55;;;;;;;4.60;100.00;102660.06;5024682;28;20076;-75
2022/01/20 01:55:26;;;;;;;20.45;2.67;;;;;;;4.62;100.00;102671.50;5034326;28;20029;-74
2022/01/20 01:57:51;;;;;;;34.60;4.38;;;;;;;4.62;100.00;102671.50;5021332;28;20087;-75
2022/01/20 02:00:18;;;;;;;24.55;3.67;;;;;;;4.62;100.00;102676.72;5029459;28;20109;-76
2022/01/20 02:02:44;;;;;;;24.15;2.85;;;;;;;4.70;100.00;102666.81;5027270;28;20029;-75
2022/01/20 02:05:12;;;;;;;20.13;2.95;;;;;;;4.77;100.00;102668.16;5023248;28;20032;-74
2022/01/20 02:18:43;;;;;;;23.10;3.33;;;;;;;4.82;100.00;102658.97;5026516;28;20044;-75
2022/01/20 02:21:09;;;;;;;40.83;3.65;;;;;;;4.80;100.00;102660.53;5027935;28;20034;-75
2022/01/20 02:23:34;;;;;;;15.52;2.42;;;;;;;4.80;100.00;102642.28;5028557;28;20032;-76
2022/01/20 02:26:00;;;;;;;23.27;3.22;;;;;;;4.80;100.00;102652.72;5026000;28;20023;-75
2022/01/20 02:28:27;;;;;;;25.23;3.38;;;;;;;4.80;100.00;102656.25;5028700;28;20037;-76
2022/01/20 02:30:53;;;;;;;22.98;3.28;;;;;;;4.76;100.00;102650.69;5025581;28;20044;-76
2022/01/20 02:33:21;;;;;;;23.45;4.25;;;;;;;4.71;100.00;102648.69;5019265;28;20025;-74
2022/01/20 02:35:52;;;;;;;18.80;2.85;;;;;;;4.72;100.00;102639.13;5025701;28;20386;-74
2022/01/20 02:38:26;;;;;;;20.80;2.83;;;;;;;4.73;99.88;102631.44;5031666;28;20032;-74
2022/01/20 02:46:20;;;;;;;26.45;3.35;;;;;;;4.79;99.76;102636.19;5025424;28;20095;-75
2022/01/20 02:48:46;;;;;;;26.80;3.30;;;;;;;4.84;99.17;102631.25;5025587;28;20034;-75
2022/01/20 02:51:11;;;;;;;29.48;4.07;;;;;;;4.92;99.58;102634.41;5016757;28;20030;-75
2022/01/20 02:53:36;;;;;;;37.58;3.80;;;;;;;4.93;99.60;102637.13;5029354;28;20424;-75
2022/01/20 02:56:03;;;;;;;21.95;3.58;;;;;;;4.96;98.92;102629.50;5023976;28;20049;-75
2022/01/20 02:58:28;;;;;;;29.73;3.40;;;;;;;5.05;98.75;102624.00;5013545;28;20041;-74
2022/01/20 03:00:54;;;;;;;28.27;3.95;;;;;;;5.05;98.76;102637.06;5023753;28;20420;-75
2022/01/20 03:03:19;;;;;;;28.50;4.18;;;;;;;5.10;96.10;102638.28;5032496;28;20086;-75
2022/01/20 03:05:45;;;;;;;19.15;1.70;;;;;;;5.09;97.18;102635.53;5022201;28;20029;-74
2022/01/20 03:08:10;;;;;;;17.05;2.08;;;;;;;5.09;97.67;102635.53;5026359;28;20117;-74
2022/01/20 03:10:37;;;;;;;19.27;2.75;;;;;;;5.03;99.04;102642.19;5030225;28;20064;-75
2022/01/20 03:13:03;;;;;;;26.23;3.60;;;;;;;5.04;99.26;102650.91;5033207;28;20048;-74
2022/01/20 03:15:28;;;;;;;21.30;2.35;;;;;;;5.04;100.00;102648.28;5033324;28;20033;-74
2022/01/20 03:17:53;;;;;;;23.02;3.00;;;;;;;5.07;100.00;102659.84;5033321;28;20033;-74
2022/01/20 03:20:19;;;;;;;18.83;3.10;;;;;;;5.03;100.00;102660.44;5017709;28;20040;-75
2022/01/20 03:22:44;;;;;;;22.50;3.30;;;;;;;4.99;100.00;102665.31;5019518;28;20052;-75
2022/01/20 03:25:11;;;;;;;18.33;2.13;;;;;;;4.95;100.00;102664.22;5026674;28;20419;-75
2022/01/20 03:27:38;;;;;;;8.90;1.77;;;;;;;4.92;99.60;102658.78;5030080;28;20117;-74
2022/01/20 03:30:04;;;;;;;10.63;1.70;;;;;;;4.91;98.71;102651.78;5030717;28;20025;-75
2022/01/20 03:32:30;;;;;;;10.63;1.70;;;;;;;4.90;99.38;102656.06;5029329;28;20031;-76
2022/01/20 03:34:55;;;;;;;14.00;2.15;;;;;;;4.85;100.00;102659.16;5030368;28;20025;-76
2022/01/20 03:37:20;;;;;;;14.90;2.03;;;;;;;4.83;100.00;102664.28;5017423;28;20129;-76
2022/01/20 03:39:45;;;;;;;23.90;2.17;;;;;;;4.80;100.00;102676.19;5024482;28;20450;-75
2022/01/20 03:42:11;;;;;;;15.35;1.65;;;;;;;4.73;100.00;102696.66;5030334;28;20041;-74
2022/01/20 03:44:36;;;;;;;15.70;2.50;;;;;;;4.64;100.00;102719.47;5022466;28;20424;-74
2022/01/20 03:47:03;;;;;;;19.52;1.95;;;;;;;4.53;100.00;102725.59;5029436;28;20030;-74
2022/01/20 03:49:50;;;;;;;10.60;1.38;;;;;;;4.38;100.00;102721.09;5032814;28;20454;-73
2022/01/20 03:52:15;;;;;;;5.88;1.10;;;;;;;4.25;100.00;102712.28;5031329;28;20036;-74
2022/01/20 03:54:41;;;;;;;7.88;0.88;;;;;;;4.18;100.00;102718.75;5021352;28;20025;-74
2022/01/20 03:57:06;;;;;;;7.55;1.40;;;;;;;4.14;100.00;102711.50;5022953;28;20029;-74
2022/01/20 03:59:31;;;;;;;5.07;0.90;;;;;;;4.09;100.00;102726.78;5022777;28;20022;-75
2022/01/20 04:01:57;;;;;;;7.72;1.00;;;;;;;4.05;100.00;102719.53;5027513;28;20851;-75
2022/01/20 04:04:22;;;;;;;6.72;0.90;;;;;;;4.04;100.00;102718.66;5033594;28;20029;-75
2022/01/20 04:06:47;;;;;;;17.05;1.92;;;;;;;4.01;100.00;102710.59;5027557;28;20030;-74
2022/01/20 04:09:13;;;;;;;13.90;1.00;;;;;;;3.97;100.00;102718.97;5024466;28;20405;-75
2022/01/20 04:11:39;;;;;;;8.90;1.90;;;;;;;3.92;100.00;102716.81;5029536;28;20030;-75
2022/01/20 04:14:04;;;;;;;10.35;1.40;;;;;;;3.88;100.00;102718.31;5027977;28;20116;-74
2022/01/20 04:16:49;;;;;;;12.30;1.42;;;;;;;3.81;100.00;102723.84;5029613;28;20026;-75
2022/01/20 04:19:15;;;;;;;13.55;1.83;;;;;;;3.80;100.00;102722.03;5027452;28;20029;-75
2022/01/20 04:21:41;;;;;;;11.90;1.10;;;;;;;3.78;100.00;102734.94;5028396;28;20060;-75
2022/01/20 04:24:07;;;;;;;14.35;1.77;;;;;;;3.83;100.00;102745.72;5024969;28;20532;-75
2022/01/20 04:26:35;;;;;;;12.40;1.70;;;;;;;3.87;100.00;102734.72;5017751;28;20032;-75
2022/01/20 04:29:01;;;;;;;10.60;1.35;;;;;;;3.90;100.00;102729.75;5029546;28;20029;-75
2022/01/20 04:31:29;;;;;;;19.65;1.88;;;;;;;3.90;100.00;102734.94;5030335;28;20025;-75
2022/01/20 04:33:57;;;;;;;12.73;1.65;;;;;;;3.92;100.00;102732.44;5028745;28;20026;-75
2022/01/20 04:36:24;;;;;;;19.75;2.28;;;;;;;3.94;100.00;102741.31;5027464;28;20045;-75
2022/01/20 04:38:50;;;;;;;11.02;1.60;;;;;;;3.94;100.00;102742.19;5019302;28;20032;-75
2022/01/20 04:41:15;;;;;;;15.00;2.30;;;;;;;3.93;100.00;102740.38;5027634;28;20136;-75
2022/01/20 04:43:41;;;;;;;18.10;1.80;;;;;;;3.98;100.00;102743.34;5015913;28;20029;-74
2022/01/20 04:46:17;;;;;;;26.27;2.88;;;;;;;4.00;100.00;102758.28;5014867;28;20037;-75
2022/01/20 04:49:03;;;;;;;25.63;3.22;;;;;;;4.01;100.00;102787.84;5020692;28;20033;-75
2022/01/20 04:59:30;;;;;;;27.38;3.10;;;;;;;3.64;100.00;102799.00;5026954;28;20034;-74
2022/01/20 05:01:55;;;;;;;26.15;3.50;;;;;;;3.54;100.00;102786.97;5016770;28;20101;-73
2022/01/20 05:04:22;;;;;;;24.27;4.05;;;;;;;3.52;100.00;102792.84;5027348;28;20120;-74
2022/01/20 05:06:48;;;;;;;25.55;3.55;;;;;;;3.46;100.00;102792.34;5018158;28;20028;-75
2022/01/20 05:09:19;;;;;;;36.53;4.47;;;;;;;3.43;100.00;102797.34;5022022;28;20403;-74
2022/01/20 05:11:52;;;;;;;26.40;4.70;;;;;;;3.39;100.00;102796.19;5025731;28;20029;-74
2022/01/20 05:14:17;;;;;;;28.48;3.50;;;;;;;3.39;100.00;102796.19;5020822;28;20389;-74
2022/01/20 05:16:43;;;;;;;26.90;3.17;;;;;;;3.41;100.00;102806.75;5022796;28;20034;-74
2022/01/20 05:19:08;;;;;;;29.58;4.03;;;;;;;3.40;100.00;102812.72;5026342;28;20028;-74
2022/01/20 05:21:34;;;;;;;29.92;3.70;;;;;;;3.41;100.00;102802.44;5014765;28;20030;-74
2022/01/20 05:23:59;;;;;;;22.15;3.72;;;;;;;3.41;100.00;102810.25;5027800;28;20057;-74
2022/01/20 05:26:24;;;;;;;32.55;4.38;;;;;;;3.43;100.00;102807.75;5019350;28;20056;-75
2022/01/20 05:28:50;;;;;;;31.33;5.28;;;;;;;3.45;100.00;102808.78;5028572;28;20034;-75
2022/01/20 05:31:15;;;;;;;36.80;5.03;;;;;;;3.48;100.00;102809.00;5022649;28;20029;-73
2022/01/20 05:33:40;;;;;;;18.40;4.00;;;;;;;3.49;100.00;102810.84;5030450;28;20116;-73
2022/01/20 05:36:06;;;;;;;20.88;3.05;;;;;;;3.51;100.00;102811.84;5029477;28;20385;-74
2022/01/20 05:38:31;;;;;;;28.30;3.65;;;;;;;3.56;100.00;102805.31;5029547;28;20097;-74
2022/01/20 05:40:56;;;;;;;18.17;2.45;;;;;;;3.59;100.00;102795.13;5022221;28;20046;-75
2022/01/20 05:43:23;;;;;;;15.75;3.20;;;;;;;3.68;98.28;102793.22;5030248;28;20138;-74
2022/01/20 05:45:49;;;;;;;18.17;2.20;;;;;;;3.77;97.73;102810.34;5023487;28;20026;-74
2022/01/20 05:48:17;;;;;;;30.58;3.53;;;;;;;3.83;96.54;102808.22;5029927;28;20401;-74
2022/01/20 05:50:44;;;;;;;14.25;2.03;;;;;;;3.87;95.24;102807.66;5032577;28;20040;-74
2022/01/20 05:53:10;;;;;;;21.27;2.15;;;;;;;3.91;95.56;102816.59;5026366;28;20489;-75
2022/01/20 05:55:36;;;;;;;10.25;2.55;;;;;;;3.94;96.19;102825.53;5008655;28;20036;-74
2022/01/20 05:58:06;;;;;;;22.02;2.70;;;;;;;3.99;95.90;102826.81;5026356;28;20029;-75
2022/01/20 06:00:33;;;;;;;15.93;3.00;;;;;;;4.01;96.96;102827.81;5022773;28;20401;-73
2022/01/20 06:05:43;;;;;;;19.95;2.63;;;;;;;4.00;96.90;102836.44;5021336;28;20048;-74
2022/01/20 06:08:08;;;;;;;19.85;3.97;;;;;;;3.99;95.44;102847.66;5034202;28;20061;-74
2022/01/20 06:10:34;;;;;;;21.52;3.65;;;;;;;3.97;96.94;102841.41;5028661;28;20505;-75
2022/01/20 06:13:00;;;;;;;15.85;2.03;;;;;;;3.96;96.20;102852.63;5027926;28;20493;-75
2022/01/20 06:15:25;;;;;;;20.40;2.47;;;;;;;3.93;97.09;102859.28;5032460;28;20116;-75
2022/01/20 06:17:51;;;;;;;18.17;3.03;;;;;;;3.91;97.60;102840.03;5032701;28;20030;-75
2022/01/20 06:20:18;;;;;;;25.75;3.58;;;;;;;3.90;97.56;102835.63;5032904;28;20100;-74
2022/01/20 06:22:44;;;;;;;21.00;2.58;;;;;;;3.87;95.20;102829.38;5018590;28;20057;-74
2022/01/20 06:25:09;;;;;;;16.52;2.22;;;;;;;3.90;94.14;102843.44;5024254;28;20507;-75
2022/01/20 06:27:35;;;;;;;21.30;2.60;;;;;;;3.91;93.38;102834.81;5031141;28;20444;-70
2022/01/20 06:30:01;;;;;;;13.75;1.73;;;;;;;3.87;91.27;102834.59;5019137;28;20030;-72
2022/01/20 06:32:27;;;;;;;16.20;2.03;;;;;;;3.88;90.86;102841.63;5025513;28;20073;-71
2022/01/20 06:34:52;;;;;;;17.27;2.38;;;;;;;3.85;89.13;102844.00;5032724;28;20025;-74
2022/01/20 06:37:18;;;;;;;14.25;1.73;;;;;;;3.76;89.52;102838.09;5021760;28;20025;-74
2022/01/20 06:39:43;;;;;;;11.35;1.33;;;;;;;3.70;88.35;102846.34;5005433;28;20470;-75
2022/01/20 06:42:08;;;;;;;8.52;1.42;;;;;;;3.70;88.91;102848.00;5020511;28;20103;-75
2022/01/20 06:44:34;;;;;;;9.60;1.90;;;;;;;3.67;89.30;102851.28;5029994;28;20107;-74
2022/01/20 06:47:14;;;;;;;10.75;1.63;;;;;;;3.64;90.32;102865.78;5129141;27;20153;-75
2022/01/20 06:49:40;;;;;;;7.93;1.88;;;;;;;3.60;91.11;102868.94;5126326;28;20046;-74
2022/01/20 06:52:06;;;;;;;14.88;2.00;;;;;;;3.47;92.69;102870.59;5117693;28;20491;-75
2022/01/20 06:54:31;;;;;;;19.05;1.48;;;;;;;3.37;94.08;102879.34;5101160;28;20111;-75
2022/01/20 06:56:59;;;;;;;14.52;1.70;;;;;;;3.28;95.21;102883.81;5116604;28;20051;-74
2022/01/20 06:59:24;;;;;;;15.63;1.90;;;;;;;3.26;95.13;102893.22;5107633;28;20448;-73
2022/01/20 07:01:50;;;;;;;10.88;1.73;;;;;;;3.20;95.18;102898.84;5122521;27;20059;-74
2022/01/20 07:04:15;;;;;;;10.32;1.67;;;;;;;3.22;95.23;102892.84;5085578;28;20395;-74
2022/01/20 07:06:41;;;;;;;11.30;1.77;;;;;;;3.33;92.61;102903.31;5096618;28;20020;-74
2022/01/20 07:09:08;;;;;;;12.90;2.05;;;;;;;3.43;93.09;102907.56;5126251;27;20024;-74
2022/01/20 07:11:34;;;;;;;12.27;2.30;;;;;;;3.51;92.85;102913.34;5100575;28;20127;-75
2022/01/20 07:14:00;;;;;;;12.65;1.92;;;;;;;3.56;92.91;102911.13;5123112;27;20435;-74
2022/01/20 07:16:28;;;;;;;10.30;1.58;;;;;;;3.64;92.08;102910.03;5115113;28;20024;-73
2022/01/20 07:18:54;;;;;;;13.50;1.50;;;;;;;3.70;92.08;102920.91;5113895;28;20043;-74
2022/01/20 07:21:19;;;;;;;14.75;1.75;;;;;;;3.72;91.46;102921.97;5094049;28;20098;-74
2022/01/20 07:23:44;;;;;;;12.13;1.83;;;;;;;3.74;91.80;102919.47;5123841;28;20028;-74
2022/01/20 07:26:10;;;;;;;17.30;2.17;;;;;;;3.72;91.27;102917.66;5111112;28;20467;-73
2022/01/20 07:28:36;;;;;;;11.80;2.22;;;;;;;3.69;92.04;102917.41;5096423;28;20039;-74
2022/01/20 07:31:01;;;;;;;15.25;2.08;;;;;;;3.70;92.19;102916.63;5097282;28;20024;-73
2022/01/20 07:33:51;;;;;;;15.77;2.47;;;;;;;3.71;92.37;102918.44;5118971;27;20016;-73
2022/01/20 07:36:17;;;;;;;12.73;1.73;;;;;;;3.74;92.30;102922.06;5115309;28;20055;-72
2022/01/20 07:38:42;;;;;;;11.52;2.00;;;;;;;3.77;93.25;102935.31;5119912;28;20031;-72
2022/01/20 07:41:08;;;;;;;11.52;2.17;;;;;;;3.81;93.23;102953.00;5097054;28;20076;-71
2022/01/20 07:43:34;;;;;;;17.10;2.55;;;;;;;3.82;97.04;102960.03;5119583;28;20031;-72
2022/01/20 07:45:59;;;;;;;15.77;2.50;;;;;;;3.70;100.00;102971.31;5095208;28;20078;-75
2022/01/20 07:48:24;;;;;;;24.73;3.28;;;;;;;3.58;100.00;102970.34;5110461;28;20024;-71
2022/01/20 07:50:50;;;;;;;27.25;3.13;;;;;;;3.46;100.00;102979.75;5093722;28;20114;-74
2022/01/20 07:53:15;;;;;;;19.65;2.50;;;;;;;3.34;100.00;102975.38;5113834;28;20039;-75
2022/01/20 07:55:40;;;;;;;24.83;3.08;;;;;;;3.24;100.00;102982.31;5092704;28;20012;-73
2022/01/20 07:58:06;;;;;;;18.13;2.63;;;;;;;3.18;100.00;102994.06;5089035;28;20032;-75
2022/01/20 08:00:31;;;;;;;17.38;2.25;;;;;;;3.20;100.00;102991.56;5086113;28;20110;-75
2022/01/20 08:02:57;;;;;;;17.63;2.47;;;;;;;3.18;100.00;102982.75;5105250;28;20046;-74
2022/01/20 08:05:22;;;;;;;22.48;3.22;;;;;;;3.15;100.00;102978.19;5106672;28;20028;-74
2022/01/20 08:07:48;;;;;;;10.73;1.88;;;;;;;3.16;100.00;102973.88;5097490;28;20170;-75
2022/01/20 08:10:14;;;;;;;14.55;2.17;;;;;;;3.13;99.49;102963.25;5103430;28;20020;-74
2022/01/20 08:12:39;;;;;;;20.75;2.13;;;;;;;3.15;98.33;102964.28;5077735;28;20496;-75
2022/01/20 08:15:09;;;;;;;21.63;2.22;;;;;;;3.19;97.34;102976.75;5079635;28;20035;-74
2022/01/20 08:17:35;;;;;;;26.48;2.53;;;;;;;3.28;97.90;102979.19;5087432;27;20456;-72
2022/01/20 08:20:00;;;;;;;16.77;2.65;;;;;;;3.38;96.10;102976.56;5112721;27;20084;-73
2022/01/20 08:22:27;;;;;;;20.15;2.17;;;;;;;3.48;94.72;102970.38;5088387;27;20039;-72
2022/01/20 08:24:52;;;;;;;16.75;1.50;;;;;;;3.59;93.26;102961.72;5100995;27;20039;-72
2022/01/20 08:27:20;;;;;;;13.35;2.65;;;;;;;3.63;92.42;102973.31;5090499;28;20552;-72
2022/01/20 08:29:45;;;;;;;16.08;2.08;;;;;;;3.71;91.61;102961.78;5093874;28;20172;-73
2022/01/20 08:32:11;;;;;;;9.57;2.17;;;;;;;3.74;92.44;102967.22;5105059;27;20102;-74
2022/01/20 08:34:36;;;;;;;24.10;2.63;;;;;;;3.78;93.13;102963.19;5100480;27;20068;-71
2022/01/20 08:37:08;;;;;;;15.02;1.83;;;;;;;3.81;91.59;102963.41;5090448;28;20028;-72
2022/01/20 08:42:01;;;;;;;17.38;3.00;;;;;;;3.90;89.63;102974.56;5109972;27;20039;-71
2022/01/20 08:44:27;;;;;;;19.23;2.63;;;;;;;3.96;89.66;102976.72;5125337;27;20126;-71
2022/01/20 08:46:53;;;;;;;12.98;1.90;;;;;;;4.01;88.55;102973.69;5103612;27;20123;-71
2022/01/20 08:49:20;;;;;;;21.33;3.10;;;;;;;4.02;88.48;102979.81;5080151;28;20020;-70
2022/01/20 08:51:46;;;;;;;17.15;2.25;;;;;;;4.02;88.44;102987.66;5097984;27;20650;-71
2022/01/20 08:54:13;;;;;;;20.17;2.50;;;;;;;4.05;88.84;102996.59;5083727;28;20020;-70
2022/01/20 08:56:40;;;;;;;19.58;2.80;;;;;;;4.10;88.70;103009.97;5081009;28;20479;-71
2022/01/20 08:59:06;;;;;;;22.98;3.03;;;;;;;4.13;89.46;103019.75;5086384;28;20027;-73
2022/01/20 09:01:36;;;;;;;20.02;2.78;;;;;;;4.13;91.04;103024.94;5087949;27;20499;-70
2022/01/20 09:04:04;;;;;;;22.88;2.22;;;;;;;4.09;92.32;103041.13;5089668;27;20857;-71
2022/01/20 09:06:30;;;;;;;18.33;2.55;;;;;;;4.00;91.89;103038.69;5102380;27;20035;-70
2022/01/20 09:08:55;;;;;;;29.55;3.22;;;;;;;3.99;92.83;103047.31;5077603;28;20482;-70
2022/01/20 09:11:30;;;;;;;20.45;2.88;;;;;;;4.00;90.01;103039.63;5095757;28;20429;-71
2022/01/20 09:16:42;;;;;;;12.20;1.60;;;;;;;4.20;86.72;103035.06;5106543;27;20042;-69
2022/01/20 09:19:07;;;;;;;16.58;1.83;;;;;;;4.34;85.91;103054.38;5107200;28;20032;-71
2022/01/20 09:21:33;;;;;;;13.43;1.98;;;;;;;4.49;85.94;103054.63;5088932;28;20039;-70
2022/01/20 09:23:58;;;;;;;18.65;2.95;;;;;;;4.55;84.26;103043.00;5076448;28;20036;-70
2022/01/20 09:26:24;;;;;;;18.15;2.72;;;;;;;4.58;84.71;103052.75;5107417;27;20510;-71
2022/01/20 09:28:50;;;;;;;15.55;2.22;;;;;;;4.61;85.81;103057.28;5086410;28;20506;-73
2022/01/20 09:31:22;;;;;;;11.65;2.42;;;;;;;4.63;86.03;103056.63;5078748;28;20024;-71
2022/01/20 09:33:47;;;;;;;15.90;1.90;;;;;;;4.59;86.05;103062.41;5081841;28;20393;-72
2022/01/20 09:36:13;;;;;;;14.50;2.50;;;;;;;4.59;86.16;103069.31;5100416;28;20020;-71
2022/01/20 09:38:38;;;;;;;14.60;1.90;;;;;;;4.55;85.87;103068.16;5101605;27;20027;-71
2022/01/20 09:41:05;;;;;;;11.60;1.92;;;;;;;4.57;86.74;103061.34;5095478;27;20035;-71
2022/01/20 09:43:31;;;;;;;14.27;2.63;;;;;;;4.63;86.92;103061.84;5104541;27;20060;-71
2022/01/20 09:45:58;;;;;;;23.23;2.83;;;;;;;4.73;85.70;103053.94;5105414;27;20043;-70
2022/01/20 09:48:26;;;;;;;11.50;1.85;;;;;;;4.76;83.15;103047.13;5083734;27;20042;-70
2022/01/20 09:50:52;;;;;;;15.10;2.35;;;;;;;4.75;82.15;103058.34;5110453;27;20020;-72
2022/01/20 09:53:19;;;;;;;13.00;1.90;;;;;;;4.74;82.82;103070.47;5092859;28;20038;-70
2022/01/20 09:55:44;;;;;;;16.88;2.35;;;;;;;4.71;84.72;103078.97;5098358;28;20479;-70
2022/01/20 09:58:11;;;;;;;20.35;2.92;;;;;;;4.69;86.20;103092.69;5107131;28;20027;-70
2022/01/20 10:00:39;;;;;;;19.25;1.70;;;;;;;4.66;87.59;103090.75;5085860;27;20119;-71
2022/01/20 10:03:09;;;;;;;17.67;2.60;;;;;;;4.66;87.09;103088.13;5107121;27;20024;-70
2022/01/20 10:05:52;;;;;;;15.85;2.10;;;;;;;4.65;86.43;103095.84;5085601;27;20058;-71
2022/01/20 10:08:22;;;;;;;14.30;2.28;;;;;;;4.65;84.86;103085.41;5105663;27;20368;-72
2022/01/20 10:10:56;;;;;;;17.27;2.30;;;;;;;4.59;84.92;103106.72;5098601;27;20039;-72
2022/01/20 10:13:25;;;;;;;11.65;1.48;;;;;;;4.54;83.38;103108.06;5087348;28;20034;-72
2022/01/20 10:16:14;;;;;;;11.30;1.70;;;;;;;4.68;82.65;103115.25;5103310;27;20066;-72
2022/01/20 10:18:49;;;;;;;13.82;1.77;;;;;;;5.32;82.05;103114.84;5100499;27;20039;-70
2022/01/20 10:21:16;;;;;;;13.98;2.10;;;;;;;6.07;79.57;103106.38;5093448;27;20113;-71
2022/01/20 10:23:47;;;;;;;15.18;1.70;;;;;;;6.59;78.19;103111.75;5102427;27;20027;-71
2022/01/20 10:26:20;;;;;;;20.23;2.20;;;;;;;6.85;74.41;103110.03;5086842;28;20062;-72
2022/01/20 10:29:10;;;;;;;13.35;1.40;;;;;;;7.36;73.59;103114.34;5101447;27;20059;-71
2022/01/20 10:31:46;;;;;;;12.05;2.20;;;;;;;7.68;72.79;103112.94;5085871;28;20497;-71
2022/01/20 10:34:35;;;;;;;14.75;2.75;;;;;;;7.86;73.43;103113.22;5099482;28;20439;-71
2022/01/20 10:37:04;;;;;;;11.55;1.80;;;;;;;8.08;71.20;103111.97;5111929;27;20027;-72
2022/01/20 10:39:42;;;;;;;18.55;2.58;;;;;;;8.42;71.76;103111.44;5111427;28;20049;-70
2022/01/20 10:42:24;;;;;;;12.02;2.00;;;;;;;8.88;70.86;103114.28;5093642;28;20024;-71
2022/01/20 10:44:52;;;;;;;12.07;2.22;;;;;;;8.82;69.27;103116.56;5098398;28;20036;-71
2022/01/20 10:47:20;;;;;;;13.65;2.40;;;;;;;8.86;67.67;103110.69;5097031;28;20395;-71
2022/01/20 10:49:46;;;;;;;14.90;2.58;;;;;;;8.76;68.09;103124.97;5107064;28;20035;-70
2022/01/20 10:52:14;;;;;;;12.32;2.65;;;;;;;8.75;68.99;103117.00;5105264;28;20031;-70
2022/01/20 10:54:48;;;;;;;14.73;2.47;;;;;;;8.77;68.15;103111.00;5097574;28;20089;-70
2022/01/20 10:57:17;;;;;;;9.93;1.90;;;;;;;8.46;69.24;103117.84;5080142;28;20460;-70
2022/01/20 10:59:57;;;;;;;11.85;2.58;;;;;;;7.88;70.23;103121.16;5112742;28;20109;-69
2022/01/20 11:02:27;;;;;;;13.85;2.28;;;;;;;7.33;72.12;103132.47;5103330;28;20080;-71
2022/01/20 11:04:53;;;;;;;16.40;2.55;;;;;;;6.89;74.68;103132.97;5100549;28;20024;-71
2022/01/20 11:07:20;;;;;;;13.48;2.20;;;;;;;6.47;75.36;103134.44;5103209;28;20494;-71
2022/01/20 11:09:50;;;;;;;12.00;1.67;;;;;;;6.26;75.78;103136.47;5118776;28;20015;-70
2022/01/20 11:12:17;;;;;;;13.90;2.65;;;;;;;6.14;78.66;103150.44;5091145;28;20119;-71
2022/01/20 11:14:46;;;;;;;19.27;3.08;;;;;;;6.05;81.55;103166.38;5096920;28;20056;-70
2022/01/20 11:17:22;;;;;;;20.33;2.28;;;;;;;5.81;83.74;103168.06;5097740;28;20028;-71
2022/01/20 11:19:48;;;;;;;8.35;1.10;;;;;;;5.26;87.00;103177.91;5112198;28;20104;-70
2022/01/20 11:22:15;;;;;;;12.77;1.48;;;;;;;5.07;90.27;103176.53;5101431;28;20028;-71
2022/01/20 11:24:42;;;;;;;11.65;2.10;;;;;;;5.06;91.44;103179.00;5100426;28;20472;-70
2022/01/20 11:27:12;;;;;;;10.38;1.52;;;;;;;5.13;92.08;103165.63;5100913;28;20035;-70
2022/01/20 11:29:45;;;;;;;18.70;3.38;;;;;;;5.20;91.37;103161.78;5101143;28;20127;-70
2022/01/20 11:32:18;;;;;;;19.48;3.85;;;;;;;5.36;90.28;103154.31;5086410;28;20052;-69
2022/01/20 11:35:01;;;;;;;8.23;1.33;;;;;;;5.51;89.73;103159.78;5104022;27;20397;-69
2022/01/20 11:37:34;;;;;;;18.90;3.25;;;;;;;6.10;88.48;103156.25;5089468;27;20034;-71
2022/01/20 11:40:18;;;;;;;15.63;1.90;;;;;;;6.90;85.05;103137.41;5085144;28;20024;-70
2022/01/20 11:43:11;;;;;;;13.70;2.08;;;;;;;7.45;81.98;103123.59;5113361;27;20103;-70
2022/01/20 11:45:40;;;;;;;10.40;2.13;;;;;;;8.28;78.29;103118.47;5093694;28;20174;-72
2022/01/20 11:48:13;;;;;;;12.23;2.35;;;;;;;9.15;75.67;103103.63;5091609;28;20027;-71
2022/01/20 11:50:38;;;;;;;13.82;1.90;;;;;;;9.51;71.37;103103.03;5068202;28;20020;-71
2022/01/20 11:53:12;;;;;;;15.05;1.85;;;;;;;9.52;69.37;103095.28;5079376;28;20078;-70
2022/01/20 11:55:53;;;;;;;23.15;3.13;;;;;;;9.01;69.22;103084.44;5062675;28;20073;-71
2022/01/20 11:58:22;;;;;;;11.25;1.92;;;;;;;8.10;73.25;103098.13;5083817;28;20423;-69
2022/01/20 12:01:08;;;;;;;12.20;2.08;;;;;;;7.41;74.86;103102.47;5091676;28;20028;-71
2022/01/20 12:03:37;;;;;;;11.90;2.20;;;;;;;6.97;76.75;103102.09;5086571;28;20031;-71
2022/01/20 12:06:08;;;;;;;11.18;1.80;;;;;;;6.77;78.33;103100.75;5068646;28;20024;-71
2022/01/20 12:08:34;;;;;;;11.43;1.80;;;;;;;6.65;79.19;103101.72;5059145;28;20043;-71
2022/01/20 12:11:04;;;;;;;18.45;2.05;;;;;;;6.43;81.14;103116.72;5097778;28;20092;-72
2022/01/20 12:13:31;;;;;;;15.05;1.55;;;;;;;6.12;81.94;103111.91;5074917;28;20072;-70
2022/01/20 12:16:00;;;;;;;11.40;1.30;;;;;;;5.95;80.83;103101.13;5041034;28;20028;-72
2022/01/20 12:18:26;;;;;;;8.98;1.67;;;;;;;5.94;80.90;103099.34;5081529;28;20458;-71
2022/01/20 12:20:51;;;;;;;5.97;1.20;;;;;;;6.32;78.62;103095.97;5056958;28;20031;-70
2022/01/20 12:23:19;;;;;;;9.18;1.38;;;;;;;7.32;75.73;103100.94;5067808;28;20020;-71
2022/01/20 12:25:44;;;;;;;9.55;1.60;;;;;;;8.29;72.93;103086.19;5078744;28;20028;-71
2022/01/20 12:28:13;;;;;;;7.38;1.70;;;;;;;9.21;69.70;103087.31;5075166;28;20466;-72
2022/01/20 12:30:47;;;;;;;15.50;2.28;;;;;;;9.62;66.09;103068.66;5068257;28;20032;-72
2022/01/20 12:33:18;;;;;;;9.98;1.73;;;;;;;10.41;64.69;103075.63;5088581;28;20491;-72